sensor_id;sensor_type;location;lat;lon;timestamp;pressure;altitude;pressure_sealevel;temperature;humidity
72162;BME280;60047;51.644;5.842;2022-11-15T00:04:31;100740.0;;;18.1;56.0
72162;BME280;60047;51.644;5.842;2022-11-15T00:09:31;100740.0;;;18.1;56.0
72162;BME280;60047;51.644;5.842;2022-11-15T00:14:31;100750.0;;;18.1;56.0
72162;BME280;60047;51.644;5.842;2022-11-15T00:19:31;100720.0;;;18.1;56.0
72162;BME280;60047;51.644;5.842;2022-11-15T00:24:31;100740.0;;;18.1;56.0
72162;BME280;60047;51.644;5.842;2022-11-15T00:34:31;100730.0;;;18.1;56.0
72162;BME280;60047;51.644;5.842;2022-11-15T00:39:31;100720.0;;;18.1;56.0
72162;BME280;60047;51.644;5.842;2022-11-15T00:44:31;100720.0;;;18.1;56.0
72162;BME280;60047;51.644;5.842;2022-11-15T00:49:31;100730.0;;;18.1;56.0
72162;BME280;60047;51.644;5.842;2022-11-15T00:54:31;100720.0;;;18.1;56.0
72162;BME280;60047;51.644;5.842;2022-11-15T00:59:31;100720.0;;;18.1;56.0
72162;BME280;60047;51.644;5.842;2022-11-15T01:04:31;100710.0;;;18.1;56.0
72162;BME280;60047;51.644;5.842;2022-11-15T01:09:31;100710.0;;;18.1;56.0
72162;BME280;60047;51.644;5.842;2022-11-15T01:14:31;100710.0;;;18.1;56.0
72162;BME280;60047;51.644;5.842;2022-11-15T01:19:31;100700.0;;;18.1;56.0
72162;BME280;60047;51.644;5.842;2022-11-15T01:24:31;100700.0;;;18.1;56.0
72162;BME280;60047;51.644;5.842;2022-11-15T01:29:32;100690.0;;;18.1;56.0
72162;BME280;60047;51.644;5.842;2022-11-15T01:34:31;100690.0;;;18.1;56.0
72162;BME280;60047;51.644;5.842;2022-11-15T01:39:31;100680.0;;;18.1;56.0
72162;BME280;60047;51.644;5.842;2022-11-15T01:44:52;100680.0;;;18.1;56.0
72162;BME280;60047;51.644;5.842;2022-11-15T01:49:34;100670.0;;;18.1;56.0
72162;BME280;60047;51.644;5.842;2022-11-15T01:54:32;100670.0;;;18.1;56.0
72162;BME280;60047;51.644;5.842;2022-11-15T01:59:32;100670.0;;;18.1;56.0
72162;BME280;60047;51.644;5.842;2022-11-15T02:04:36;100670.0;;;18.1;56.0
72162;BME280;60047;51.644;5.842;2022-11-15T02:09:31;100670.0;;;18.1;56.0
72162;BME280;60047;51.644;5.842;2022-11-15T02:14:32;100670.0;;;18.1;56.0
72162;BME280;60047;51.644;5.842;2022-11-15T02:20:39;100660.0;;;18.1;56.0
72162;BME280;60047;51.644;5.842;2022-11-15T02:27:13;100650.0;;;18.0;56.0
72162;BME280;60047;51.644;5.842;2022-11-15T02:30:29;100650.0;;;18.0;56.0
72162;BME280;60047;51.644;5.842;2022-11-15T02:34:55;100640.0;;;18.0;56.0
72162;BME280;60047;51.644;5.842;2022-11-15T02:39:46;100640.0;;;18.0;56.0
72162;BME280;60047;51.644;5.842;2022-11-15T02:44:35;100640.0;;;18.0;56.0
72162;BME280;60047;51.644;5.842;2022-11-15T02:49:33;100640.0;;;18.0;56.0
72162;BME280;60047;51.644;5.842;2022-11-15T02:54:33;100650.0;;;18.0;56.0
72162;BME280;60047;51.644;5.842;2022-11-15T03:00:13;100630.0;;;18.0;56.0
72162;BME280;60047;51.644;5.842;2022-11-15T03:05:11;100620.0;;;18.0;56.5
72162;BME280;60047;51.644;5.842;2022-11-15T03:09:51;100630.0;;;18.0;56.0
72162;BME280;60047;51.644;5.842;2022-11-15T03:14:34;100620.0;;;18.0;56.0
72162;BME280;60047;51.644;5.842;2022-11-15T03:19:35;100620.0;;;18.0;56.0
72162;BME280;60047;51.644;5.842;2022-11-15T03:24:34;100610.0;;;18.0;56.0
72162;BME280;60047;51.644;5.842;2022-11-15T03:29:38;100610.0;;;18.0;56.0
72162;BME280;60047;51.644;5.842;2022-11-15T03:34:39;100620.0;;;18.0;56.0
72162;BME280;60047;51.644;5.842;2022-11-15T03:39:32;100620.0;;;18.0;56.0
72162;BME280;60047;51.644;5.842;2022-11-15T03:44:48;100630.0;;;18.0;56.0
72162;BME280;60047;51.644;5.842;2022-11-15T03:49:33;100620.0;;;18.0;56.0
72162;BME280;60047;51.644;5.842;2022-11-15T03:54:32;100620.0;;;18.0;56.5
72162;BME280;60047;51.644;5.842;2022-11-15T03:59:32;100630.0;;;18.0;56.0
72162;BME280;60047;51.644;5.842;2022-11-15T04:04:32;100630.0;;;18.1;56.0
72162;BME280;60047;51.644;5.842;2022-11-15T04:09:32;100630.0;;;18.0;56.0
72162;BME280;60047;51.644;5.842;2022-11-15T04:14:32;100620.0;;;18.0;56.5
72162;BME280;60047;51.644;5.842;2022-11-15T04:19:32;100620.0;;;18.0;56.5
72162;BME280;60047;51.644;5.842;2022-11-15T04:24:32;100630.0;;;18.0;56.5
72162;BME280;60047;51.644;5.842;2022-11-15T04:29:32;100620.0;;;18.0;56.5
72162;BME280;60047;51.644;5.842;2022-11-15T04:34:32;100630.0;;;18.0;56.5
72162;BME280;60047;51.644;5.842;2022-11-15T04:39:32;100630.0;;;18.0;56.0
72162;BME280;60047;51.644;5.842;2022-11-15T04:44:32;100630.0;;;18.0;56.5
72162;BME280;60047;51.644;5.842;2022-11-15T04:49:32;100620.0;;;18.1;56.5
72162;BME280;60047;51.644;5.842;2022-11-15T04:54:32;100610.0;;;18.0;56.5
72162;BME280;60047;51.644;5.842;2022-11-15T04:59:32;100620.0;;;18.0;56.5
72162;BME280;60047;51.644;5.842;2022-11-15T05:04:32;100610.0;;;18.0;56.5
72162;BME280;60047;51.644;5.842;2022-11-15T05:09:32;100610.0;;;18.0;56.5
72162;BME280;60047;51.644;5.842;2022-11-15T05:14:32;100610.0;;;18.0;56.5
72162;BME280;60047;51.644;5.842;2022-11-15T05:19:32;100610.0;;;18.0;56.5
72162;BME280;60047;51.644;5.842;2022-11-15T05:24:32;100610.0;;;18.0;56.5
72162;BME280;60047;51.644;5.842;2022-11-15T05:29:32;100620.0;;;18.0;56.5
72162;BME280;60047;51.644;5.842;2022-11-15T05:34:32;100610.0;;;18.0;56.5
72162;BME280;60047;51.644;5.842;2022-11-15T05:39:32;100600.0;;;18.0;56.5
72162;BME280;60047;51.644;5.842;2022-11-15T05:44:33;100600.0;;;18.0;56.5
72162;BME280;60047;51.644;5.842;2022-11-15T05:49:41;100600.0;;;18.0;56.5
72162;BME280;60047;51.644;5.842;2022-11-15T05:54:33;100600.0;;;18.0;56.5
72162;BME280;60047;51.644;5.842;2022-11-15T05:59:33;100600.0;;;18.0;56.5
72162;BME280;60047;51.644;5.842;2022-11-15T06:04:32;100610.0;;;18.0;56.5
72162;BME280;60047;51.644;5.842;2022-11-15T06:09:32;100610.0;;;18.0;56.5
72162;BME280;60047;51.644;5.842;2022-11-15T06:14:32;100620.0;;;18.0;56.5
72162;BME280;60047;51.644;5.842;2022-11-15T06:19:32;100600.0;;;18.0;56.5
72162;BME280;60047;51.644;5.842;2022-11-15T06:24:32;100610.0;;;18.0;56.5
72162;BME280;60047;51.644;5.842;2022-11-15T06:29:32;100610.0;;;18.0;56.5
72162;BME280;60047;51.644;5.842;2022-11-15T06:34:32;100600.0;;;18.0;56.5
72162;BME280;60047;51.644;5.842;2022-11-15T06:39:32;100620.0;;;18.0;56.5
72162;BME280;60047;51.644;5.842;2022-11-15T06:44:32;100630.0;;;18.0;56.5
72162;BME280;60047;51.644;5.842;2022-11-15T06:49:32;100630.0;;;18.0;56.5
72162;BME280;60047;51.644;5.842;2022-11-15T06:54:32;100640.0;;;18.0;56.5
72162;BME280;60047;51.644;5.842;2022-11-15T06:59:32;100650.0;;;18.0;56.5
72162;BME280;60047;51.644;5.842;2022-11-15T07:04:34;100650.0;;;18.0;56.5
72162;BME280;60047;51.644;5.842;2022-11-15T07:09:32;100650.0;;;18.0;56.5
72162;BME280;60047;51.644;5.842;2022-11-15T07:14:32;100660.0;;;18.0;56.5
72162;BME280;60047;51.644;5.842;2022-11-15T07:19:32;100650.0;;;18.0;56.5
72162;BME280;60047;51.644;5.842;2022-11-15T07:24:32;100650.0;;;18.0;56.5
72162;BME280;60047;51.644;5.842;2022-11-15T07:29:32;100660.0;;;18.0;56.5
72162;BME280;60047;51.644;5.842;2022-11-15T07:34:32;100650.0;;;18.0;56.5
72162;BME280;60047;51.644;5.842;2022-11-15T07:39:32;100660.0;;;18.0;56.5
72162;BME280;60047;51.644;5.842;2022-11-15T07:44:32;100670.0;;;18.0;57.0
72162;BME280;60047;51.644;5.842;2022-11-15T07:49:32;100660.0;;;18.0;57.0
72162;BME280;60047;51.644;5.842;2022-11-15T07:54:32;100660.0;;;18.0;57.0
72162;BME280;60047;51.644;5.842;2022-11-15T07:59:33;100660.0;;;18.0;57.0
72162;BME280;60047;51.644;5.842;2022-11-15T08:04:32;100660.0;;;18.0;57.0
72162;BME280;60047;51.644;5.842;2022-11-15T08:09:32;100660.0;;;18.0;57.0
72162;BME280;60047;51.644;5.842;2022-11-15T08:14:33;100660.0;;;18.2;56.5
72162;BME280;60047;51.644;5.842;2022-11-15T08:19:32;100660.0;;;18.1;56.5
72162;BME280;60047;51.644;5.842;2022-11-15T08:24:33;100660.0;;;18.1;57.0
72162;BME280;60047;51.644;5.842;2022-11-15T08:29:32;100660.0;;;18.1;57.0
72162;BME280;60047;51.644;5.842;2022-11-15T08:34:33;100660.0;;;18.1;57.0
72162;BME280;60047;51.644;5.842;2022-11-15T08:39:33;100660.0;;;18.1;57.0
72162;BME280;60047;51.644;5.842;2022-11-15T08:44:33;100670.0;;;18.1;57.0
72162;BME280;60047;51.644;5.842;2022-11-15T08:49:32;100670.0;;;18.1;57.0
72162;BME280;60047;51.644;5.842;2022-11-15T08:54:33;100660.0;;;18.0;57.0
72162;BME280;60047;51.644;5.842;2022-11-15T08:59:33;100640.0;;;18.0;57.0
72162;BME280;60047;51.644;5.842;2022-11-15T09:04:33;100650.0;;;18.1;57.0
72162;BME280;60047;51.644;5.842;2022-11-15T09:09:33;100650.0;;;18.1;57.0
72162;BME280;60047;51.644;5.842;2022-11-15T09:14:33;100640.0;;;18.0;57.0
72162;BME280;60047;51.644;5.842;2022-11-15T09:19:33;100640.0;;;18.1;57.0
72162;BME280;60047;51.644;5.842;2022-11-15T09:24:33;100630.0;;;18.0;57.0
72162;BME280;60047;51.644;5.842;2022-11-15T09:29:33;100630.0;;;18.1;57.0
72162;BME280;60047;51.644;5.842;2022-11-15T09:34:33;100620.0;;;18.1;57.0
72162;BME280;60047;51.644;5.842;2022-11-15T09:39:33;100620.0;;;18.1;57.0
72162;BME280;60047;51.644;5.842;2022-11-15T09:45:37;100600.0;;;18.1;57.0
72162;BME280;60047;51.644;5.842;2022-11-15T09:49:33;100600.0;;;18.1;57.0
72162;BME280;60047;51.644;5.842;2022-11-15T09:54:37;100600.0;;;18.1;57.0
72162;BME280;60047;51.644;5.842;2022-11-15T09:59:59;100610.0;;;18.2;57.0
72162;BME280;60047;51.644;5.842;2022-11-15T10:04:33;100590.0;;;18.2;57.0
72162;BME280;60047;51.644;5.842;2022-11-15T10:09:51;100590.0;;;18.2;57.0
72162;BME280;60047;51.644;5.842;2022-11-15T10:14:34;100580.0;;;18.2;57.0
72162;BME280;60047;51.644;5.842;2022-11-15T10:20:10;100580.0;;;18.2;57.0
72162;BME280;60047;51.644;5.842;2022-11-15T10:24:40;100580.0;;;18.2;57.0
72162;BME280;60047;51.644;5.842;2022-11-15T10:29:33;100580.0;;;18.2;57.0
72162;BME280;60047;51.644;5.842;2022-11-15T10:34:35;100560.0;;;18.2;57.0
72162;BME280;60047;51.644;5.842;2022-11-15T10:39:33;100560.0;;;18.2;57.0
72162;BME280;60047;51.644;5.842;2022-11-15T10:44:41;100550.0;;;18.2;57.0
72162;BME280;60047;51.644;5.842;2022-11-15T10:49:34;100550.0;;;18.2;57.0
72162;BME280;60047;51.644;5.842;2022-11-15T10:54:37;100540.0;;;18.2;57.0
72162;BME280;60047;51.644;5.842;2022-11-15T10:59:35;100530.0;;;18.2;57.0
72162;BME280;60047;51.644;5.842;2022-11-15T11:04:51;100530.0;;;18.2;57.0
72162;BME280;60047;51.644;5.842;2022-11-15T11:09:39;100530.0;;;18.2;57.0
72162;BME280;60047;51.644;5.842;2022-11-15T11:14:34;100530.0;;;18.2;57.0
72162;BME280;60047;51.644;5.842;2022-11-15T11:24:51;100500.0;;;18.2;57.0
72162;BME280;60047;51.644;5.842;2022-11-15T11:30:21;100500.0;;;18.2;57.0
72162;BME280;60047;51.644;5.842;2022-11-15T11:35:08;100510.0;;;18.2;57.0
72162;BME280;60047;51.644;5.842;2022-11-15T11:39:56;100490.0;;;18.2;57.0
72162;BME280;60047;51.644;5.842;2022-11-15T11:45:25;100490.0;;;18.2;57.0
72162;BME280;60047;51.644;5.842;2022-11-15T11:49:43;100480.0;;;18.3;57.0
72162;BME280;60047;51.644;5.842;2022-11-15T11:54:45;100460.0;;;18.3;56.5
72162;BME280;60047;51.644;5.842;2022-11-15T11:59:56;100450.0;;;18.3;56.5
72162;BME280;60047;51.644;5.842;2022-11-15T12:04:37;100450.0;;;18.3;56.5
72162;BME280;60047;51.644;5.842;2022-11-15T12:09:51;100440.0;;;18.3;56.5
72162;BME280;60047;51.644;5.842;2022-11-15T12:14:39;100440.0;;;18.3;56.5
72162;BME280;60047;51.644;5.842;2022-11-15T12:19:34;100430.0;;;18.3;56.5
72162;BME280;60047;51.644;5.842;2022-11-15T12:24:41;100410.0;;;18.3;56.5
72162;BME280;60047;51.644;5.842;2022-11-15T12:29:39;100390.0;;;18.3;56.5
72162;BME280;60047;51.644;5.842;2022-11-15T12:34:44;100380.0;;;18.3;56.5
72162;BME280;60047;51.644;5.842;2022-11-15T12:40:19;100380.0;;;18.3;56.5
72162;BME280;60047;51.644;5.842;2022-11-15T12:44:58;100370.0;;;18.3;56.5
72162;BME280;60047;51.644;5.842;2022-11-15T12:49:47;100370.0;;;18.3;56.5
72162;BME280;60047;51.644;5.842;2022-11-15T12:55:00;100360.0;;;18.3;56.5
72162;BME280;60047;51.644;5.842;2022-11-15T13:00:38;100350.0;;;18.3;56.5
72162;BME280;60047;51.644;5.842;2022-11-15T13:04:33;100340.0;;;18.3;56.5
72162;BME280;60047;51.644;5.842;2022-11-15T13:09:55;100330.0;;;18.3;56.5
72162;BME280;60047;51.644;5.842;2022-11-15T13:14:53;100320.0;;;18.3;56.5
72162;BME280;60047;51.644;5.842;2022-11-15T13:19:35;100320.0;;;18.3;56.5
72162;BME280;60047;51.644;5.842;2022-11-15T13:29:33;100310.0;;;18.3;56.5
72162;BME280;60047;51.644;5.842;2022-11-15T13:39:34;100280.0;;;18.3;56.5
72162;BME280;60047;51.644;5.842;2022-11-15T13:49:34;100270.0;;;18.3;56.5
72162;BME280;60047;51.644;5.842;2022-11-15T13:59:36;100260.0;;;18.3;56.5
72162;BME280;60047;51.644;5.842;2022-11-15T14:09:40;100240.0;;;18.3;56.5
72162;BME280;60047;51.644;5.842;2022-11-15T14:19:40;100230.0;;;18.3;56.5
72162;BME280;60047;51.644;5.842;2022-11-15T14:29:34;100220.0;;;18.2;56.5
72162;BME280;60047;51.644;5.842;2022-11-15T14:39:34;100200.0;;;18.2;56.5
72162;BME280;60047;51.644;5.842;2022-11-15T14:49:34;100180.0;;;18.2;56.5
72162;BME280;60047;51.644;5.842;2022-11-15T14:59:34;100150.0;;;18.2;56.5
72162;BME280;60047;51.644;5.842;2022-11-15T15:09:34;100140.0;;;18.2;56.5
72162;BME280;60047;51.644;5.842;2022-11-15T15:19:34;100120.0;;;18.2;56.5
72162;BME280;60047;51.644;5.842;2022-11-15T15:29:34;100110.0;;;18.2;56.5
72162;BME280;60047;51.644;5.842;2022-11-15T15:39:34;100100.0;;;18.2;56.5
72162;BME280;60047;51.644;5.842;2022-11-15T15:49:34;100080.0;;;18.2;56.5
72162;BME280;60047;51.644;5.842;2022-11-15T15:59:34;100070.0;;;18.2;56.5
72162;BME280;60047;51.644;5.842;2022-11-15T16:09:34;100070.0;;;18.2;56.5
